createdAt,value
2023-03-22T00:00:15.450Z,96317.94
2023-03-22T00:02:43.629Z,96324.91
2023-03-22T00:05:10.217Z,96311.13
2023-03-22T00:07:37.713Z,96310.72
2023-03-22T00:10:05.479Z,96304.63
2023-03-22T00:12:31.985Z,96308.28
2023-03-22T00:15:00.181Z,96309.59
2023-03-22T00:17:26.783Z,96307.38
2023-03-22T00:19:54.684Z,96300.28
2023-03-22T00:22:21.833Z,96287.84
2023-03-22T00:24:48.361Z,96288.41
2023-03-22T00:27:14.914Z,96285.91
2023-03-22T00:29:41.836Z,96281.34
2023-03-22T00:32:08.397Z,96268.69
2023-03-22T00:34:34.937Z,96263.69
2023-03-22T00:37:01.350Z,96260.91
2023-03-22T00:39:27.923Z,96260.59
2023-03-22T00:41:54.365Z,96254.03
2023-03-22T00:44:21.340Z,96249.50
2023-03-22T00:46:47.835Z,96259.09
2023-03-22T00:49:15.112Z,96260.59
2023-03-22T00:51:41.527Z,96255.81
2023-03-22T00:54:10.140Z,96254.97
2023-03-22T00:56:37.719Z,96253.94
2023-03-22T00:59:04.948Z,96247.31
2023-03-22T01:01:32.035Z,96249.78
2023-03-22T01:03:58.871Z,96252.09
2023-03-22T01:06:25.507Z,96249.97
2023-03-22T01:08:55.030Z,96240.13
2023-03-22T01:11:21.548Z,96240.06
2023-03-22T01:13:48.096Z,96236.44
2023-03-22T01:16:14.704Z,96235.53
2023-03-22T01:18:41.349Z,96225.81
2023-03-22T01:21:08.086Z,96221.91
2023-03-22T01:23:34.957Z,96210.69
2023-03-22T01:26:01.856Z,96206.47
2023-03-22T01:28:29.098Z,96207.59
2023-03-22T01:30:57.027Z,96197.34
2023-03-22T01:33:23.512Z,96200.44
2023-03-22T01:35:49.991Z,96209.44
2023-03-22T01:38:16.650Z,96203.78
2023-03-22T01:40:43.499Z,96201.47
2023-03-22T01:43:17.302Z,96199.53
2023-03-22T01:45:51.786Z,96199.16
2023-03-22T01:48:27.477Z,96201.19
2023-03-22T01:51:02.839Z,96201.63
2023-03-22T01:53:32.696Z,96210.25
2023-03-22T01:55:59.553Z,96207.78
2023-03-22T01:58:26.257Z,96208.63
2023-03-22T02:00:53.104Z,96211.66
2023-03-22T02:03:27.919Z,96204.38
2023-03-22T02:05:54.596Z,96199.56
2023-03-22T02:08:21.165Z,96205.47
2023-03-22T02:10:48.064Z,96206.94
2023-03-22T02:13:38.928Z,96212.69
2023-03-22T02:16:10.739Z,96208.00
2023-03-22T02:18:53.798Z,96200.31
2023-03-22T02:21:26.973Z,96198.63
2023-03-22T02:24:25.643Z,96203.44
2023-03-22T02:27:06.852Z,96197.44
2023-03-22T02:29:39.325Z,96198.22
2023-03-22T02:32:24.521Z,96196.16
2023-03-22T02:34:57.308Z,96190.63
2023-03-22T02:38:02.869Z,96186.91
2023-03-22T02:40:44.623Z,96187.94
2023-03-22T02:43:20.600Z,96192.91
2023-03-22T02:46:04.091Z,96201.28
2023-03-22T02:48:56.883Z,96195.78
2023-03-22T02:51:31.329Z,96200.84
2023-03-22T02:54:24.945Z,96206.94
2023-03-22T02:57:03.058Z,96211.47
2023-03-22T02:59:31.986Z,96216.97
2023-03-22T03:02:02.845Z,96220.66
2023-03-22T03:04:33.093Z,96225.44
2023-03-22T03:07:04.360Z,96223.63
2023-03-22T03:09:32.811Z,96212.59
2023-03-22T03:11:59.328Z,96220.44
2023-03-22T03:14:31.318Z,96219.84
2023-03-22T03:17:07.062Z,96221.41
2023-03-22T03:20:15.119Z,96225.69
2023-03-22T03:23:14.862Z,96215.59
2023-03-22T03:25:54.444Z,96220.50
2023-03-22T03:28:39.345Z,96213.94
2023-03-22T03:31:17.482Z,96227.59
2023-03-22T03:34:07.859Z,96228.97
2023-03-22T03:36:38.019Z,96230.69
2023-03-22T03:39:09.637Z,96242.03
2023-03-22T03:41:36.957Z,96247.41
2023-03-22T03:44:04.402Z,96251.56
2023-03-22T03:46:31.163Z,96256.63
2023-03-22T03:48:58.444Z,96258.66
2023-03-22T03:51:27.292Z,96264.28
2023-03-22T03:53:53.881Z,96262.44
2023-03-22T03:56:20.376Z,96267.59
2023-03-22T03:58:46.903Z,96270.59
2023-03-22T04:01:14.297Z,96271.63
2023-03-22T04:03:40.694Z,96269.50
2023-03-22T04:06:09.102Z,96264.81
2023-03-22T04:08:35.573Z,96259.28
2023-03-22T04:11:01.979Z,96263.28
2023-03-22T04:13:29.813Z,96263.69
2023-03-22T04:15:58.085Z,96264.00
2023-03-22T04:18:24.586Z,96272.47
2023-03-22T04:20:53.415Z,96276.16
2023-03-22T04:23:22.509Z,96280.31
2023-03-22T04:25:50.414Z,96279.44
2023-03-22T04:28:19.693Z,96274.28
2023-03-22T04:30:52.303Z,96273.94
2023-03-22T04:33:19.700Z,96272.09
2023-03-22T04:35:49.932Z,96276.00
2023-03-22T04:38:16.476Z,96272.19
2023-03-22T04:40:46.563Z,96269.84
2023-03-22T04:43:15.759Z,96268.47
2023-03-22T04:45:44.678Z,96264.38
2023-03-22T04:48:11.279Z,96259.41
2023-03-22T04:50:40.194Z,96269.25
2023-03-22T04:53:08.127Z,96266.53
2023-03-22T04:55:34.607Z,96264.38
2023-03-22T04:58:01.045Z,96265.03
2023-03-22T05:00:30.168Z,96255.31
2023-03-22T05:02:58.261Z,96255.09
2023-03-22T05:05:24.817Z,96249.34
2023-03-22T05:07:51.528Z,96246.03
2023-03-22T05:10:18.039Z,96244.75
2023-03-22T05:12:45.330Z,96254.56
2023-03-22T05:15:11.804Z,96252.16
2023-03-22T05:17:38.292Z,96254.44
2023-03-22T05:20:10.038Z,96253.75
2023-03-22T05:22:40.613Z,96258.19
2023-03-22T05:25:08.663Z,96267.63
2023-03-22T05:27:35.298Z,96263.38
2023-03-22T05:30:02.203Z,96260.44
2023-03-22T05:32:29.317Z,96271.34
2023-03-22T05:34:56.488Z,96274.59
2023-03-22T05:37:22.996Z,96277.84
2023-03-22T05:39:49.550Z,96283.84
2023-03-22T05:42:15.994Z,96275.34
2023-03-22T05:44:43.373Z,96275.53
2023-03-22T05:47:09.798Z,96272.03
2023-03-22T05:49:36.325Z,96276.56
2023-03-22T05:52:04.881Z,96279.59
2023-03-22T05:54:31.658Z,96282.22
2023-03-22T05:56:58.175Z,96279.81
2023-03-22T05:59:24.759Z,96285.69
2023-03-22T06:01:51.617Z,96290.25
2023-03-22T06:04:18.693Z,96289.06
2023-03-22T06:06:45.369Z,96282.41
2023-03-22T06:09:18.069Z,96287.38
2023-03-22T06:11:44.825Z,96281.31
2023-03-22T06:14:11.640Z,96286.06
2023-03-22T06:16:38.074Z,96278.69
2023-03-22T06:19:04.636Z,96282.31
2023-03-22T06:21:31.084Z,96285.75
2023-03-22T06:23:57.587Z,96279.59
2023-03-22T06:26:24.067Z,96278.31
2023-03-22T06:28:51.019Z,96276.00
2023-03-22T06:31:17.539Z,96271.69
2023-03-22T06:33:45.510Z,96268.44
2023-03-22T06:36:12.042Z,96267.22
2023-03-22T06:38:40.969Z,96261.69
2023-03-22T06:41:07.784Z,96260.91
2023-03-22T06:43:34.253Z,96261.41
2023-03-22T06:46:00.754Z,96263.38
2023-03-22T06:48:27.341Z,96263.63
2023-03-22T06:50:53.921Z,96268.66
2023-03-22T06:53:20.536Z,96261.63
2023-03-22T06:55:47.110Z,96256.94
2023-03-22T06:58:15.233Z,96242.22
2023-03-22T07:00:42.035Z,96243.81
2023-03-22T07:03:08.776Z,96246.34
2023-03-22T07:05:35.385Z,96242.84
2023-03-22T07:08:01.876Z,96234.31
2023-03-22T07:10:29.108Z,96237.41
2023-03-22T07:12:55.709Z,96233.19
2023-03-22T07:15:24.631Z,96238.56
2023-03-22T07:17:52.075Z,96232.66
2023-03-22T07:20:19.818Z,96244.22
2023-03-22T07:22:46.513Z,96241.41
2023-03-22T07:25:14.281Z,96242.53
2023-03-22T07:27:41.070Z,96240.81
2023-03-22T07:30:09.724Z,96234.88
2023-03-22T07:32:36.524Z,96236.38
2023-03-22T07:35:03.054Z,96237.81
2023-03-22T07:37:29.536Z,96242.38
2023-03-22T07:39:55.941Z,96228.25
2023-03-22T07:42:22.369Z,96237.59
2023-03-22T07:44:49.815Z,96235.75
2023-03-22T07:47:20.286Z,96236.94
2023-03-22T07:49:51.475Z,96239.63
2023-03-22T07:52:18.154Z,96245.25
2023-03-22T07:54:44.561Z,96238.34
2023-03-22T07:57:10.998Z,96241.09
2023-03-22T07:59:39.891Z,96241.94
2023-03-22T08:02:06.825Z,96237.50
2023-03-22T08:04:34.234Z,96219.56
2023-03-22T08:07:00.716Z,96226.50
2023-03-22T08:09:27.261Z,96229.34
2023-03-22T08:11:57.003Z,96214.91
2023-03-22T08:14:35.512Z,96214.34
2023-03-22T08:17:02.600Z,96216.94
2023-03-22T08:19:29.047Z,96207.84
2023-03-22T08:21:55.783Z,96205.75
2023-03-22T08:24:22.255Z,96198.97
2023-03-22T08:26:49.685Z,96195.06
2023-03-22T08:29:16.644Z,96197.69
2023-03-22T08:31:44.712Z,96201.88
2023-03-22T08:34:11.163Z,96194.88
2023-03-22T08:36:38.290Z,96192.16
2023-03-22T08:39:05.367Z,96192.03
2023-03-22T08:41:31.783Z,96199.03
2023-03-22T08:43:58.354Z,96197.34
2023-03-22T08:46:24.835Z,96192.34
2023-03-22T08:48:51.246Z,96192.38
2023-03-22T08:51:22.347Z,96188.75
2023-03-22T08:53:49.079Z,96183.66
2023-03-22T08:56:16.647Z,96189.97
2023-03-22T08:58:46.670Z,96182.69
2023-03-22T09:01:15.226Z,96189.94
2023-03-22T09:03:41.956Z,96173.97
2023-03-22T09:06:09.684Z,96179.28
2023-03-22T09:08:36.810Z,96169.72
2023-03-22T09:11:03.303Z,96152.97
2023-03-22T09:13:31.147Z,96151.75
2023-03-22T09:15:57.713Z,96151.19
2023-03-22T09:18:24.892Z,96148.88
2023-03-22T09:20:51.930Z,96148.28
2023-03-22T09:23:19.041Z,96138.22
2023-03-22T09:25:46.963Z,96130.63
2023-03-22T09:28:15.000Z,96136.16
2023-03-22T09:30:41.814Z,96135.50
2023-03-22T09:33:09.305Z,96130.47
2023-03-22T09:35:36.219Z,96137.38
2023-03-22T09:38:03.558Z,96130.47
2023-03-22T09:40:32.854Z,96137.72
2023-03-22T09:43:02.440Z,96130.56
2023-03-22T09:45:38.495Z,96132.50
2023-03-22T09:48:26.978Z,96137.00
2023-03-22T09:50:53.965Z,96133.84
2023-03-22T09:53:22.786Z,96135.06
2023-03-22T09:56:08.200Z,96132.69
2023-03-22T09:58:56.940Z,96131.22
2023-03-22T10:01:51.017Z,96136.94
2023-03-22T10:04:29.528Z,96128.13
2023-03-22T10:07:24.309Z,96125.06
2023-03-22T10:10:07.334Z,96127.53
2023-03-22T10:12:46.221Z,96122.63
2023-03-22T10:15:32.007Z,96120.13
2023-03-22T10:18:00.814Z,96114.53
2023-03-22T10:20:37.331Z,96120.75
2023-03-22T10:23:06.902Z,96110.22
2023-03-22T10:25:38.167Z,96119.06
2023-03-22T10:28:22.242Z,96111.72
2023-03-22T10:30:54.560Z,96111.25
2023-03-22T10:33:28.462Z,96107.22
2023-03-22T10:35:56.084Z,96109.44
2023-03-22T10:38:26.622Z,96112.84
2023-03-22T10:40:56.867Z,96112.00
2023-03-22T10:43:36.578Z,96103.97
2023-03-22T10:46:07.712Z,96099.63
2023-03-22T10:48:41.910Z,96101.63
2023-03-22T10:51:18.053Z,96095.56
2023-03-22T10:53:47.644Z,96101.38
2023-03-22T10:56:16.693Z,96095.31
2023-03-22T10:58:44.432Z,96092.09
2023-03-22T11:01:13.838Z,96087.22
2023-03-22T11:03:50.870Z,96089.47
2023-03-22T11:06:18.381Z,96086.66
2023-03-22T11:08:53.687Z,96091.34
2023-03-22T11:11:26.409Z,96083.94
2023-03-22T11:14:07.765Z,96069.41
2023-03-22T11:16:44.669Z,96071.19
2023-03-22T11:19:17.232Z,96070.38
2023-03-22T11:21:45.298Z,96064.34
2023-03-22T11:24:15.302Z,96051.75
2023-03-22T11:26:42.049Z,96049.31
2023-03-22T11:29:16.480Z,96041.47
2023-03-22T11:31:55.776Z,96038.25
2023-03-22T11:34:27.078Z,96036.19
2023-03-22T11:36:59.556Z,96032.66
2023-03-22T11:39:31.071Z,96013.38
2023-03-22T11:42:01.522Z,96017.81
2023-03-22T11:44:32.091Z,96014.44
2023-03-22T11:47:01.515Z,96011.19
2023-03-22T11:49:40.660Z,96015.16
2023-03-22T11:52:10.372Z,96002.91
2023-03-22T11:54:39.200Z,95995.59
2023-03-22T11:57:14.509Z,96000.13
2023-03-22T11:59:53.271Z,95994.69
2023-03-22T12:02:34.535Z,95995.56
2023-03-22T12:05:10.713Z,95991.91
2023-03-22T12:07:38.884Z,95985.03
2023-03-22T12:10:08.423Z,95983.13
2023-03-22T12:12:46.660Z,95973.22
2023-03-22T12:15:16.073Z,95963.28
2023-03-22T12:17:49.295Z,95959.13
2023-03-22T12:20:18.334Z,95961.19
2023-03-22T12:22:51.915Z,95959.16
2023-03-22T12:25:32.990Z,95945.19
2023-03-22T12:28:04.170Z,95946.59
2023-03-22T12:30:33.506Z,95946.50
2023-03-22T12:33:06.589Z,95937.91
2023-03-22T12:35:35.209Z,95925.13
2023-03-22T12:38:30.282Z,95929.16
2023-03-22T12:41:00.708Z,95932.53
2023-03-22T12:43:43.393Z,95918.50
2023-03-22T12:46:18.416Z,95915.09
2023-03-22T12:48:56.244Z,95910.97
2023-03-22T12:51:22.765Z,95900.97
2023-03-22T12:53:53.163Z,95894.44
2023-03-22T12:56:23.249Z,95888.53
2023-03-22T12:58:52.206Z,95887.06
2023-03-22T13:01:44.377Z,95883.63
2023-03-22T13:04:43.215Z,95879.44
2023-03-22T13:07:16.239Z,95871.25
2023-03-22T13:09:51.789Z,95868.91
2023-03-22T13:12:18.257Z,95869.44
2023-03-22T13:14:56.146Z,95865.22
2023-03-22T13:17:22.594Z,95870.78
2023-03-22T13:20:07.765Z,95861.38
2023-03-22T13:22:37.783Z,95858.13
2023-03-22T13:25:13.310Z,95855.97
2023-03-22T13:27:45.638Z,95848.59
2023-03-22T13:30:24.090Z,95854.69
2023-03-22T13:33:08.636Z,95846.47
2023-03-22T13:35:51.235Z,95842.59
2023-03-22T13:38:21.887Z,95854.22
2023-03-22T13:41:16.981Z,95853.50
2023-03-22T13:43:50.193Z,95849.47
2023-03-22T13:46:22.610Z,95841.66
2023-03-22T13:48:52.156Z,95842.47
2023-03-22T13:51:21.897Z,95839.06
2023-03-22T13:53:55.900Z,95833.97
2023-03-22T13:56:52.181Z,95835.41
2023-03-22T13:59:27.995Z,95832.84
2023-03-22T14:02:04.843Z,95828.31
2023-03-22T14:04:56.098Z,95824.25
2023-03-22T14:07:49.133Z,95816.78
2023-03-22T14:10:41.681Z,95820.22
2023-03-22T14:13:36.475Z,95821.56
2023-03-22T14:16:12.914Z,95811.56
2023-03-22T14:18:44.536Z,95820.47
2023-03-22T14:21:19.709Z,95811.81
